Time;durP1;ratioP1;P1;durP2;ratioP2;P2;SDS_P1;SDS_P2;PMS_P1;PMS_P2;Temp;Humidity;BMP_temperature;BMP_pressure;BME280_temperature;BME280_humidity;BME280_pressure;Samples;Min_cycle;Max_cycle;Signal;HPM_P1;HPM_P2
2022/03/25 00:00:24;;;;;;;72.83;29.70;;;7.50;90.90;;;;;;5050341;28;20185;-73
2022/03/25 00:02:50;;;;;;;74.57;28.63;;;7.20;92.50;;;;;;5049678;28;20175;-73
2022/03/25 00:05:16;;;;;;;65.50;28.50;;;6.90;93.90;;;;;;5050287;28;20177;-73
2022/03/25 00:07:41;;;;;;;65.90;28.40;;;6.90;95.10;;;;;;5050419;28;20170;-73
2022/03/25 00:10:08;;;;;;;63.23;28.27;;;6.80;96.40;;;;;;5050123;28;20196;-73
2022/03/25 00:12:34;;;;;;;71.93;30.37;;;6.70;95.80;;;;;;5050030;28;20203;-73
2022/03/25 00:15:00;;;;;;;74.93;30.77;;;6.90;94.30;;;;;;5049941;28;20170;-73
2022/03/25 00:17:25;;;;;;;67.67;28.83;;;6.90;93.80;;;;;;5050080;28;20195;-73
2022/03/25 00:19:51;;;;;;;66.97;29.13;;;7.00;93.70;;;;;;5050031;28;20641;-73
2022/03/25 00:22:17;;;;;;;70.33;29.37;;;6.80;94.10;;;;;;5049894;28;20179;-73
2022/03/25 00:24:43;;;;;;;74.87;30.20;;;6.90;93.00;;;;;;5049771;28;20170;-73
2022/03/25 00:27:09;;;;;;;72.80;29.90;;;7.00;93.90;;;;;;5051309;28;20175;-74
2022/03/25 00:29:35;;;;;;;71.43;29.83;;;7.10;93.60;;;;;;5049851;28;20286;-73
2022/03/25 00:32:02;;;;;;;73.77;28.47;;;7.00;93.40;;;;;;5049520;28;20176;-73
2022/03/25 00:34:28;;;;;;;74.53;31.43;;;7.10;92.40;;;;;;5049814;28;20174;-73
2022/03/25 00:36:54;;;;;;;76.53;30.63;;;7.20;92.90;;;;;;5051150;28;20190;-73
2022/03/25 00:39:19;;;;;;;74.30;29.10;;;7.00;92.50;;;;;;5047713;28;20204;-74
2022/03/25 00:41:45;;;;;;;75.20;29.80;;;7.00;92.70;;;;;;5049562;28;20212;-73
2022/03/25 00:44:12;;;;;;;68.50;29.03;;;7.10;91.30;;;;;;5049737;28;20185;-73
2022/03/25 00:46:39;;;;;;;72.70;30.33;;;7.20;91.20;;;;;;5049863;28;20170;-73
2022/03/25 00:49:05;;;;;;;62.87;28.73;;;6.90;93.30;;;;;;5049663;28;20185;-74
2022/03/25 00:51:30;;;;;;;76.70;30.70;;;6.60;93.40;;;;;;5049621;28;20180;-74
2022/03/25 00:53:56;;;;;;;71.63;31.07;;;6.60;93.00;;;;;;5048036;28;20334;-73
2022/03/25 00:56:24;;;;;;;71.50;30.23;;;6.60;92.90;;;;;;5049642;28;20202;-74
2022/03/25 00:58:50;;;;;;;78.07;30.13;;;6.60;92.90;;;;;;5049507;28;20192;-73
2022/03/25 01:01:16;;;;;;;72.27;30.40;;;6.70;92.00;;;;;;5049473;28;20710;-74
2022/03/25 01:03:42;;;;;;;73.73;30.73;;;6.60;92.60;;;;;;5049289;28;20253;-74
2022/03/25 01:06:08;;;;;;;72.40;30.60;;;6.40;95.10;;;;;;5049603;28;20706;-74
2022/03/25 01:08:35;;;;;;;75.00;30.30;;;6.50;94.50;;;;;;5049449;28;20193;-73
2022/03/25 01:11:04;;;;;;;69.17;27.90;;;6.60;93.30;;;;;;5049379;28;20173;-74
2022/03/25 01:13:33;;;;;;;70.03;28.97;;;6.40;93.80;;;;;;5049569;28;20183;-73
2022/03/25 01:16:00;;;;;;;71.17;28.60;;;6.10;94.40;;;;;;5049349;28;20175;-74
2022/03/25 01:18:26;;;;;;;75.90;27.90;;;6.20;93.80;;;;;;5049555;28;20285;-74
2022/03/25 01:20:52;;;;;;;67.27;28.57;;;6.20;94.50;;;;;;5049156;28;20193;-73
2022/03/25 01:23:17;;;;;;;66.00;27.93;;;6.00;94.90;;;;;;5049095;28;20674;-73
2022/03/25 01:25:43;;;;;;;74.80;29.03;;;6.00;94.40;;;;;;5049399;28;20642;-73
2022/03/25 01:28:09;;;;;;;70.07;28.60;;;6.30;93.00;;;;;;5049346;28;20174;-73
2022/03/25 01:30:35;;;;;;;74.53;27.10;;;6.20;93.90;;;;;;5049409;28;20541;-73
2022/03/25 01:33:01;;;;;;;76.97;29.90;;;6.30;93.30;;;;;;5049122;28;20166;-73
2022/03/25 01:35:26;;;;;;;76.03;31.37;;;6.10;95.10;;;;;;5049263;28;20755;-73
2022/03/25 01:37:52;;;;;;;88.83;30.13;;;6.00;96.80;;;;;;5050460;28;20196;-73
2022/03/25 01:40:18;;;;;;;75.97;30.17;;;6.20;97.40;;;;;;5049204;28;20646;-73
2022/03/25 01:42:44;;;;;;;74.03;30.63;;;6.30;96.20;;;;;;5050402;28;20230;-74
2022/03/25 01:45:11;;;;;;;77.90;30.13;;;6.20;95.30;;;;;;5052980;28;20177;-73
2022/03/25 01:47:38;;;;;;;79.00;29.70;;;6.20;95.60;;;;;;5051092;28;20172;-73
2022/03/25 01:50:04;;;;;;;76.50;30.73;;;6.20;95.60;;;;;;5052821;28;20241;-73
2022/03/25 01:52:30;;;;;;;83.20;30.70;;;6.00;96.40;;;;;;5052470;28;20271;-74
2022/03/25 01:55:15;;;;;;;74.00;31.00;;;6.20;94.70;;;;;;5052719;28;20268;-73
2022/03/25 01:57:40;;;;;;;84.57;31.27;;;6.00;96.60;;;;;;5052610;28;20197;-73
2022/03/25 02:00:07;;;;;;;80.40;31.40;;;6.10;96.80;;;;;;5054037;28;20192;-73
2022/03/25 02:02:32;;;;;;;76.30;31.30;;;6.00;97.30;;;;;;5052245;28;20175;-73
2022/03/25 02:04:59;;;;;;;79.63;31.50;;;6.00;97.20;;;;;;5052629;28;20165;-73
2022/03/25 02:07:25;;;;;;;79.80;31.40;;;6.00;96.70;;;;;;5052411;28;20264;-73
2022/03/25 02:09:51;;;;;;;74.87;29.03;;;6.10;95.70;;;;;;5052661;28;20181;-73
2022/03/25 02:12:17;;;;;;;74.70;30.07;;;5.90;97.60;;;;;;5052348;28;20185;-73
2022/03/25 02:14:43;;;;;;;79.60;31.00;;;5.80;98.40;;;;;;5052284;28;20543;-73
2022/03/25 02:17:08;;;;;;;90.73;33.03;;;5.90;97.20;;;;;;5053479;28;20254;-73
2022/03/25 02:19:34;;;;;;;85.07;33.67;;;5.80;99.90;;;;;;5052316;28;20660;-73
2022/03/25 02:22:00;;;;;;;102.33;35.33;;;5.80;98.90;;;;;;5051913;28;20202;-73
2022/03/25 02:24:26;;;;;;;91.33;34.70;;;6.00;98.60;;;;;;5052044;28;20254;-73
2022/03/25 02:26:52;;;;;;;98.43;35.43;;;5.90;97.50;;;;;;5052199;28;20254;-73
2022/03/25 02:29:17;;;;;;;102.90;36.87;;;6.00;97.90;;;;;;5052098;28;20211;-73
2022/03/25 02:31:43;;;;;;;101.33;35.50;;;6.00;98.00;;;;;;5051904;28;20193;-73
2022/03/25 02:34:10;;;;;;;106.07;36.30;;;6.10;98.40;;;;;;5052092;28;20174;-73
2022/03/25 02:36:37;;;;;;;120.27;39.37;;;6.20;98.40;;;;;;5051804;28;20234;-73
2022/03/25 02:39:07;;;;;;;99.93;36.63;;;6.10;99.20;;;;;;5051876;28;20724;-73
2022/03/25 02:41:33;;;;;;;113.00;40.07;;;6.10;99.30;;;;;;5051728;28;20195;-73
2022/03/25 02:44:01;;;;;;;103.17;35.87;;;6.00;99.90;;;;;;5051933;28;20251;-73
2022/03/25 02:46:27;;;;;;;101.90;36.93;;;6.10;99.90;;;;;;5051846;28;20169;-73
2022/03/25 02:48:53;;;;;;;102.57;37.20;;;6.20;99.90;;;;;;5051598;28;20189;-73
2022/03/25 02:51:19;;;;;;;107.30;37.87;;;6.00;98.80;;;;;;5052721;28;20185;-73
2022/03/25 02:53:45;;;;;;;122.60;41.63;;;6.10;99.90;;;;;;5051382;28;20686;-73
2022/03/25 02:56:11;;;;;;;119.33;41.57;;;6.00;99.90;;;;;;5051513;28;20201;-73
2022/03/25 02:58:37;;;;;;;128.60;41.17;;;6.00;99.90;;;;;;5051605;28;20183;-73
2022/03/25 03:01:03;;;;;;;123.83;43.80;;;5.90;99.90;;;;;;5051047;28;20256;-73
2022/03/25 03:03:29;;;;;;;122.23;43.30;;;5.90;99.90;;;;;;5050865;28;20652;-73
2022/03/25 03:05:55;;;;;;;128.50;43.23;;;5.80;99.90;;;;;;5050965;28;20169;-73
2022/03/25 03:08:20;;;;;;;134.43;42.70;;;5.90;99.90;;;;;;5051123;28;20170;-73
2022/03/25 03:10:46;;;;;;;129.87;43.23;;;6.00;99.90;;;;;;5051383;28;20178;-73
2022/03/25 03:13:13;;;;;;;127.70;43.60;;;5.90;99.90;;;;;;5051109;28;20179;-73
2022/03/25 03:15:38;;;;;;;129.70;43.23;;;5.80;99.90;;;;;;5051108;28;20203;-73
2022/03/25 03:18:04;;;;;;;135.67;44.37;;;5.90;99.90;;;;;;5051151;28;20202;-73
2022/03/25 03:20:30;;;;;;;126.93;43.03;;;5.90;99.90;;;;;;5051043;28;20170;-73
2022/03/25 03:22:57;;;;;;;133.37;42.40;;;5.80;99.90;;;;;;5050722;28;20193;-73
2022/03/25 03:25:23;;;;;;;127.30;43.20;;;5.90;99.90;;;;;;5051142;28;20169;-73
2022/03/25 03:27:49;;;;;;;136.37;43.33;;;5.80;99.90;;;;;;5051042;28;20682;-73
2022/03/25 03:30:15;;;;;;;130.03;44.13;;;5.80;99.90;;;;;;5050986;28;20201;-73
2022/03/25 03:32:41;;;;;;;138.57;44.87;;;5.80;99.90;;;;;;5050740;28;20712;-73
2022/03/25 03:35:08;;;;;;;132.60;44.93;;;6.00;99.90;;;;;;5050767;28;20169;-73
2022/03/25 03:37:46;;;;;;;131.77;45.73;;;5.90;99.90;;;;;;5050689;28;20568;-73
2022/03/25 03:40:14;;;;;;;137.67;45.13;;;5.80;99.90;;;;;;5050798;28;20676;-73
2022/03/25 03:42:40;;;;;;;130.57;45.20;;;5.80;99.90;;;;;;5050614;28;20172;-73
2022/03/25 03:45:08;;;;;;;129.87;43.63;;;5.80;99.90;;;;;;5050656;28;20715;-73
2022/03/25 03:47:38;;;;;;;128.77;44.17;;;5.80;99.90;;;;;;5050654;28;20231;-73
2022/03/25 03:50:05;;;;;;;144.70;46.80;;;5.70;99.90;;;;;;5048733;28;20197;-73
2022/03/25 03:52:31;;;;;;;140.57;44.00;;;5.60;99.90;;;;;;5050247;28;20218;-73
2022/03/25 03:54:57;;;;;;;135.97;45.20;;;5.80;99.90;;;;;;5050484;28;20170;-73
2022/03/25 03:57:23;;;;;;;140.47;46.50;;;5.90;99.90;;;;;;5050506;28;20527;-72
2022/03/25 03:59:49;;;;;;;144.93;46.43;;;5.80;99.90;;;;;;5050281;28;20185;-73
2022/03/25 04:02:15;;;;;;;137.93;44.00;;;5.60;99.90;;;;;;5050214;28;20175;-73
2022/03/25 04:04:41;;;;;;;155.40;47.33;;;5.60;99.90;;;;;;5049628;28;20252;-73
2022/03/25 04:07:07;;;;;;;139.67;45.40;;;5.70;99.90;;;;;;5050096;28;20628;-73
2022/03/25 04:09:34;;;;;;;157.33;47.70;;;5.60;99.90;;;;;;5050205;28;20189;-72
2022/03/25 04:12:01;;;;;;;151.60;46.13;;;5.50;99.90;;;;;;5050344;28;20529;-73
2022/03/25 04:14:26;;;;;;;152.10;46.97;;;5.40;99.90;;;;;;5050050;28;20579;-73
2022/03/25 04:16:52;;;;;;;145.17;46.83;;;5.50;99.90;;;;;;5050765;28;20185;-73
2022/03/25 04:19:18;;;;;;;152.80;45.37;;;5.40;99.90;;;;;;5050200;28;20277;-73
2022/03/25 04:21:43;;;;;;;156.27;47.90;;;5.40;99.90;;;;;;5049934;28;20257;-73
2022/03/25 04:24:09;;;;;;;146.13;47.37;;;5.40;99.90;;;;;;5049564;28;20641;-73
2022/03/25 04:26:35;;;;;;;167.07;49.90;;;5.20;99.90;;;;;;5050004;28;20319;-73
2022/03/25 04:29:00;;;;;;;152.87;47.90;;;5.20;99.90;;;;;;5049738;28;20705;-74
2022/03/25 04:31:26;;;;;;;151.00;49.60;;;5.30;99.90;;;;;;5049683;28;20227;-73
2022/03/25 04:33:52;;;;;;;154.40;48.97;;;5.30;99.90;;;;;;5049913;28;20307;-74
2022/03/25 04:36:18;;;;;;;175.73;52.40;;;5.10;99.90;;;;;;5049794;28;20265;-73
2022/03/25 04:38:44;;;;;;;161.63;49.07;;;5.10;99.90;;;;;;5049734;28;20732;-73
2022/03/25 04:41:10;;;;;;;153.53;49.77;;;5.20;99.90;;;;;;5049667;28;20254;-74
2022/03/25 04:43:39;;;;;;;166.17;48.73;;;4.90;99.90;;;;;;5049740;28;20572;-73
2022/03/25 04:46:06;;;;;;;159.87;48.60;;;4.80;99.90;;;;;;5049746;28;20219;-74
2022/03/25 04:48:33;;;;;;;154.80;48.30;;;4.80;99.90;;;;;;5049702;28;20185;-74
2022/03/25 04:50:59;;;;;;;156.70;48.07;;;5.00;99.90;;;;;;5047698;28;20172;-73
2022/03/25 04:53:26;;;;;;;156.27;48.57;;;5.10;99.90;;;;;;5049536;28;20630;-73
2022/03/25 04:55:52;;;;;;;167.00;51.40;;;5.10;99.90;;;;;;5049604;28;20173;-73
2022/03/25 04:58:18;;;;;;;164.17;49.80;;;5.10;99.90;;;;;;5050850;28;20232;-73
2022/03/25 05:00:44;;;;;;;165.73;49.70;;;5.00;99.90;;;;;;5049646;28;20173;-73
2022/03/25 05:03:09;;;;;;;150.57;47.97;;;4.90;99.90;;;;;;5049160;28;20172;-73
2022/03/25 05:05:35;;;;;;;153.37;48.83;;;4.70;99.90;;;;;;5049717;28;20207;-73
2022/03/25 05:08:01;;;;;;;155.93;48.63;;;4.60;99.90;;;;;;5049519;28;20254;-73
2022/03/25 05:10:28;;;;;;;169.03;49.13;;;4.70;99.90;;;;;;5033274;28;20213;-73
2022/03/25 05:12:54;;;;;;;167.23;49.43;;;4.80;99.90;;;;;;5049277;28;20173;-73
2022/03/25 05:15:19;;;;;;;162.77;47.53;;;4.70;99.90;;;;;;5049178;28;20171;-73
2022/03/25 05:17:46;;;;;;;163.07;49.07;;;4.90;99.90;;;;;;5050977;28;20849;-73
2022/03/25 05:20:12;;;;;;;162.83;50.13;;;4.90;99.90;;;;;;5053258;28;20187;-73
2022/03/25 05:22:38;;;;;;;156.40;47.90;;;4.90;99.90;;;;;;5052626;28;20163;-73
2022/03/25 05:25:07;;;;;;;152.43;46.43;;;4.90;99.90;;;;;;5053350;28;20638;-73
2022/03/25 05:27:43;;;;;;;162.87;47.63;;;5.00;99.90;;;;;;5051696;28;20170;-73
2022/03/25 05:30:09;;;;;;;150.53;47.70;;;5.00;99.90;;;;;;5052091;28;20199;-73
2022/03/25 05:32:35;;;;;;;152.47;48.43;;;4.90;99.90;;;;;;5052959;28;20169;-73
2022/03/25 05:35:01;;;;;;;149.73;46.93;;;5.00;99.90;;;;;;5053064;28;20173;-73
2022/03/25 05:37:26;;;;;;;141.80;45.83;;;5.00;99.90;;;;;;5053047;28;20196;-73
2022/03/25 05:39:52;;;;;;;159.63;48.07;;;4.90;99.90;;;;;;5053093;28;20665;-73
2022/03/25 05:42:18;;;;;;;160.90;48.43;;;4.80;99.90;;;;;;5052884;28;20170;-73
2022/03/25 05:44:43;;;;;;;134.93;45.67;;;5.00;99.90;;;;;;5053145;28;20602;-73
2022/03/25 05:47:09;;;;;;;145.90;46.70;;;5.00;99.90;;;;;;5052267;28;20569;-73
2022/03/25 05:49:35;;;;;;;148.53;45.67;;;4.90;99.90;;;;;;5052869;28;20550;-73
2022/03/25 05:52:01;;;;;;;136.13;46.77;;;5.00;99.90;;;;;;5053886;28;20259;-73
2022/03/25 05:54:26;;;;;;;155.07;49.83;;;5.30;99.90;;;;;;5050591;28;20177;-73
2022/03/25 05:56:52;;;;;;;155.90;50.10;;;5.30;99.90;;;;;;5052651;28;20254;-73
2022/03/25 05:59:17;;;;;;;160.67;50.53;;;5.40;99.90;;;;;;5053991;28;20269;-73
2022/03/25 06:01:43;;;;;;;156.77;51.17;;;5.20;99.90;;;;;;5052509;28;20542;-73
2022/03/25 06:04:09;;;;;;;163.70;49.87;;;5.30;99.90;;;;;;5052380;28;20223;-73
2022/03/25 06:06:34;;;;;;;160.50;52.33;;;5.10;99.90;;;;;;5052580;28;20236;-72
2022/03/25 06:09:00;;;;;;;163.63;51.57;;;5.20;99.90;;;;;;5052321;28;20189;-73
2022/03/25 06:11:26;;;;;;;171.77;55.20;;;5.40;99.90;;;;;;5052464;28;20183;-73
2022/03/25 06:13:52;;;;;;;157.43;52.00;;;5.40;99.90;;;;;;5052145;28;20214;-73
2022/03/25 06:16:18;;;;;;;162.27;53.20;;;5.40;99.90;;;;;;5051799;28;20190;-73
2022/03/25 06:18:43;;;;;;;154.87;52.73;;;5.60;99.90;;;;;;5052314;28;20210;-73
2022/03/25 06:21:09;;;;;;;151.97;51.53;;;5.80;99.90;;;;;;5052169;28;20218;-73
2022/03/25 06:23:35;;;;;;;154.17;52.23;;;5.80;99.90;;;;;;5051800;28;20231;-73
2022/03/25 06:26:01;;;;;;;145.70;48.03;;;5.70;99.90;;;;;;5052147;28;20224;-73
2022/03/25 06:28:26;;;;;;;139.40;48.33;;;5.70;99.90;;;;;;5051693;28;20618;-74
2022/03/25 06:30:52;;;;;;;142.97;48.40;;;5.80;99.90;;;;;;5052148;28;20192;-74
2022/03/25 06:33:18;;;;;;;156.80;52.77;;;6.10;99.90;;;;;;5051767;28;20171;-74
2022/03/25 06:35:44;;;;;;;146.73;51.60;;;6.70;99.90;;;;;;5052067;28;20316;-74
2022/03/25 06:38:10;;;;;;;157.33;52.67;;;7.10;99.90;;;;;;5051756;28;20868;-74
2022/03/25 06:40:36;;;;;;;149.57;52.87;;;7.40;99.90;;;;;;5051903;28;20182;-74
2022/03/25 06:43:02;;;;;;;154.27;53.13;;;7.60;99.90;;;;;;5051771;28;20231;-74
2022/03/25 06:45:28;;;;;;;156.90;54.73;;;7.50;99.90;;;;;;5051875;28;20508;-74
2022/03/25 06:47:54;;;;;;;146.60;54.27;;;7.50;99.90;;;;;;5051808;28;20171;-74
2022/03/25 06:50:21;;;;;;;147.23;54.27;;;8.10;99.90;;;;;;5051749;28;20678;-74
2022/03/25 06:52:48;;;;;;;146.27;54.10;;;8.30;99.90;;;;;;5051369;28;20647;-74
2022/03/25 06:55:15;;;;;;;152.70;56.23;;;8.60;99.90;;;;;;5051596;28;20184;-74
2022/03/25 06:57:40;;;;;;;148.83;54.27;;;8.50;99.90;;;;;;5051523;28;20230;-74
2022/03/25 07:00:12;;;;;;;154.57;55.20;;;8.70;99.90;;;;;;5051399;28;20190;-74
2022/03/25 07:02:42;;;;;;;151.07;55.47;;;9.60;99.90;;;;;;5051176;28;20172;-74
2022/03/25 07:05:12;;;;;;;147.90;53.70;;;9.90;99.60;;;;;;5051400;28;20180;-74
2022/03/25 07:07:40;;;;;;;144.93;53.77;;;10.40;98.10;;;;;;5051273;28;20700;-73
2022/03/25 07:10:10;;;;;;;145.43;55.63;;;10.10;98.90;;;;;;5051292;28;20222;-73
2022/03/25 07:12:41;;;;;;;142.07;56.17;;;10.50;98.00;;;;;;5051295;28;20186;-74
2022/03/25 07:15:08;;;;;;;141.10;55.80;;;11.10;96.30;;;;;;5049880;28;20756;-75
2022/03/25 07:17:37;;;;;;;127.37;52.97;;;12.20;94.20;;;;;;5049398;28;20189;-74
2022/03/25 07:20:03;;;;;;;128.13;54.00;;;12.20;92.30;;;;;;5051122;28;20254;-74
2022/03/25 07:22:29;;;;;;;139.07;55.83;;;12.70;92.10;;;;;;5050432;28;20169;-75
2022/03/25 07:24:55;;;;;;;136.83;56.57;;;13.30;90.80;;;;;;5051282;28;20165;-76
2022/03/25 07:27:21;;;;;;;128.00;55.80;;;14.10;88.00;;;;;;5049171;28;20202;-76
2022/03/25 07:29:46;;;;;;;123.20;54.40;;;14.60;86.70;;;;;;5051646;28;20681;-77
2022/03/25 07:32:12;;;;;;;120.23;54.63;;;14.30;85.90;;;;;;5050870;28;20263;-77
2022/03/25 07:34:38;;;;;;;123.77;55.17;;;13.90;87.60;;;;;;5051027;28;20549;-77
2022/03/25 07:37:04;;;;;;;117.47;54.77;;;14.80;84.00;;;;;;5051084;28;20193;-77
2022/03/25 07:39:31;;;;;;;117.95;54.13;;;15.10;82.80;;;;;;5050496;28;20196;-77
2022/03/25 07:41:57;;;;;;;112.05;54.47;;;14.80;82.80;;;;;;5051725;28;20244;-77
2022/03/25 07:44:23;;;;;;;116.22;52.97;;;14.50;83.40;;;;;;5050874;28;20169;-77
2022/03/25 07:46:49;;;;;;;114.47;56.03;;;15.60;81.90;;;;;;5053168;28;20688;-78
2022/03/25 07:49:15;;;;;;;107.95;54.58;;;16.60;79.00;;;;;;5055571;28;20612;-77
2022/03/25 07:51:41;;;;;;;109.70;55.63;;;17.60;76.80;;;;;;5055620;28;20174;-78
2022/03/25 07:54:07;;;;;;;121.90;59.30;;;17.70;74.80;;;;;;5060298;28;20209;-78
2022/03/25 07:56:33;;;;;;;107.88;55.47;;;16.40;78.40;;;;;;5059635;28;20196;-78
2022/03/25 07:59:03;;;;;;;103.35;53.58;;;17.00;75.70;;;;;;5057938;28;20239;-78
2022/03/25 08:01:29;;;;;;;100.50;52.28;;;18.10;73.90;;;;;;5057649;28;20165;-78
2022/03/25 08:03:55;;;;;;;97.53;51.53;;;18.10;71.60;;;;;;5056156;28;20263;-78
2022/03/25 08:06:22;;;;;;;92.38;48.15;;;17.40;74.50;;;;;;5056845;28;20181;-78
2022/03/25 08:08:49;;;;;;;93.07;50.83;;;17.70;72.90;;;;;;5057490;28;20308;-78
2022/03/25 08:11:17;;;;;;;92.78;49.10;;;18.20;72.70;;;;;;5056200;28;20239;-77
2022/03/25 08:13:42;;;;;;;91.07;47.63;;;18.00;72.90;;;;;;5055355;28;20177;-78
2022/03/25 08:16:08;;;;;;;92.75;47.15;;;17.90;72.30;;;;;;5055305;28;20239;-78
2022/03/25 08:18:34;;;;;;;85.68;45.90;;;16.90;73.20;;;;;;5056370;28;20193;-78
2022/03/25 08:20:59;;;;;;;82.40;44.92;;;18.20;70.80;;;;;;5056898;28;20227;-78
2022/03/25 08:28:57;;;;;;;88.30;43.42;;;17.60;72.00;;;;;;5059209;28;20280;-76
2022/03/25 08:31:23;;;;;;;83.40;44.30;;;17.00;72.70;;;;;;5055660;28;20165;-78
2022/03/25 08:33:49;;;;;;;77.80;43.42;;;17.00;73.00;;;;;;5060609;28;20598;-78
2022/03/25 08:36:17;;;;;;;89.45;45.53;;;16.60;74.40;;;;;;5060821;28;20180;-80
2022/03/25 08:38:42;;;;;;;87.03;46.67;;;16.00;76.70;;;;;;5062379;28;20185;-80
2022/03/25 08:41:08;;;;;;;81.68;45.63;;;16.50;76.80;;;;;;5060216;28;20218;-78
2022/03/25 08:43:34;;;;;;;85.90;46.35;;;17.30;74.10;;;;;;5053727;28;20216;-76
2022/03/25 08:46:01;;;;;;;84.65;44.13;;;18.50;69.40;;;;;;5050927;28;20166;-77
2022/03/25 08:48:27;;;;;;;94.00;46.58;;;18.90;68.30;;;;;;5054520;28;20189;-78
2022/03/25 08:50:53;;;;;;;86.53;43.65;;;18.70;70.90;;;;;;5054122;28;20660;-77
2022/03/25 08:53:19;;;;;;;84.60;42.03;;;18.40;69.50;;;;;;5056111;28;20645;-77
2022/03/25 08:55:45;;;;;;;87.82;42.30;;;17.90;72.30;;;;;;5055478;28;20685;-77
2022/03/25 08:58:11;;;;;;;85.88;44.72;;;17.40;73.30;;;;;;5055044;28;20300;-76
2022/03/25 09:00:38;;;;;;;87.75;44.30;;;17.20;72.10;;;;;;5058846;28;20199;-79
2022/03/25 09:03:05;;;;;;;91.32;43.78;;;17.10;72.50;;;;;;5058795;28;20184;-78
2022/03/25 09:05:31;;;;;;;84.65;40.28;;;17.00;74.00;;;;;;5056208;28;20310;-78
2022/03/25 09:07:56;;;;;;;87.30;42.42;;;16.50;75.30;;;;;;5055948;28;20243;-78
2022/03/25 09:10:22;;;;;;;80.68;41.72;;;16.70;73.40;;;;;;5054443;28;20669;-78
2022/03/25 09:12:48;;;;;;;83.60;41.45;;;16.60;75.50;;;;;;5055032;28;20181;-78
2022/03/25 09:15:15;;;;;;;73.43;40.15;;;16.80;75.20;;;;;;5055319;28;20173;-77
2022/03/25 09:17:45;;;;;;;85.85;40.33;;;16.60;75.80;;;;;;5064172;28;20247;-78
2022/03/25 09:20:12;;;;;;;89.00;41.25;;;16.40;74.90;;;;;;5064875;28;20189;-79
2022/03/25 09:22:37;;;;;;;74.03;38.10;;;17.00;73.70;;;;;;5065292;28;20174;-79
2022/03/25 09:25:05;;;;;;;76.85;36.50;;;17.00;73.50;;;;;;5064660;28;20196;-79
2022/03/25 09:27:31;;;;;;;74.40;35.40;;;17.00;75.40;;;;;;5062901;28;20276;-79
2022/03/25 09:29:57;;;;;;;63.63;33.38;;;16.90;73.00;;;;;;5063183;28;20197;-79
2022/03/25 09:32:22;;;;;;;68.50;33.03;;;17.50;70.60;;;;;;5061832;28;20688;-78
2022/03/25 09:37:39;;;;;;;74.18;34.08;;;17.40;71.20;;;;;;5058615;28;20598;-78
2022/03/25 09:40:20;;;;;;;70.82;31.42;;;17.30;71.40;;;;;;5056353;28;20239;-78
2022/03/25 09:42:47;;;;;;;61.13;29.15;;;17.30;69.80;;;;;;5057593;28;20179;-78
2022/03/25 09:45:18;;;;;;;64.70;29.42;;;17.90;68.80;;;;;;5056811;28;20180;-77
2022/03/25 09:47:45;;;;;;;62.92;29.90;;;17.50;67.90;;;;;;5057115;28;20212;-77
2022/03/25 09:50:13;;;;;;;61.90;28.15;;;17.50;68.80;;;;;;5056800;28;20201;-78
2022/03/25 09:52:40;;;;;;;61.45;28.67;;;17.60;67.10;;;;;;5056878;28;20268;-78
2022/03/25 09:55:06;;;;;;;48.38;26.83;;;17.60;68.30;;;;;;5056867;28;20173;-78
2022/03/25 09:57:32;;;;;;;54.45;27.42;;;17.50;67.70;;;;;;5053998;28;20558;-78
2022/03/25 09:59:59;;;;;;;52.10;26.50;;;17.60;68.20;;;;;;5055561;28;20186;-78
2022/03/25 10:02:24;;;;;;;54.13;26.45;;;18.10;67.70;;;;;;5054843;28;20541;-78
2022/03/25 10:04:51;;;;;;;46.63;22.00;;;18.50;66.60;;;;;;5056702;28;20178;-78
2022/03/25 10:07:30;;;;;;;44.63;23.70;;;18.70;64.30;;;;;;5058689;28;20239;-78
2022/03/25 10:10:13;;;;;;;46.38;22.13;;;18.60;63.90;;;;;;5057856;28;20193;-78
2022/03/25 10:12:40;;;;;;;46.42;23.13;;;18.40;63.00;;;;;;5060945;28;20255;-78
2022/03/25 10:15:28;;;;;;;49.10;23.27;;;18.50;62.20;;;;;;5059770;28;20744;-78
2022/03/25 10:18:01;;;;;;;47.22;22.90;;;18.40;63.50;;;;;;5061030;28;20208;-78
2022/03/25 10:20:34;;;;;;;45.95;21.65;;;18.60;61.10;;;;;;5059568;28;20186;-78
2022/03/25 10:23:06;;;;;;;45.03;21.10;;;18.50;64.40;;;;;;5059906;28;20177;-78
2022/03/25 10:25:53;;;;;;;41.47;21.10;;;18.80;61.10;;;;;;5059763;28;20176;-78
2022/03/25 10:28:29;;;;;;;42.13;20.38;;;18.50;61.20;;;;;;5062487;28;20177;-78
2022/03/25 10:30:55;;;;;;;42.90;21.45;;;18.20;63.10;;;;;;5059998;28;20184;-78
2022/03/25 10:33:30;;;;;;;45.00;22.13;;;17.90;64.50;;;;;;5059560;28;20550;-78
2022/03/25 10:36:08;;;;;;;44.80;21.10;;;18.40;62.80;;;;;;5059326;28;20181;-78
2022/03/25 10:38:43;;;;;;;44.53;20.70;;;18.90;63.40;;;;;;5059203;28;20281;-78
2022/03/25 10:41:10;;;;;;;46.97;21.35;;;18.40;62.80;;;;;;5059253;28;20242;-78
2022/03/25 10:43:54;;;;;;;47.35;21.85;;;18.50;63.60;;;;;;5059227;28;20212;-78
2022/03/25 10:46:48;;;;;;;47.05;22.13;;;19.20;63.00;;;;;;5060155;28;20173;-78
2022/03/25 10:49:17;;;;;;;43.90;22.10;;;18.90;61.80;;;;;;5057816;28;20220;-78
2022/03/25 10:51:59;;;;;;;45.00;21.15;;;18.50;62.60;;;;;;5059125;28;20177;-78
2022/03/25 10:54:27;;;;;;;44.83;20.80;;;18.50;62.80;;;;;;5058954;28;20201;-78
2022/03/25 10:56:58;;;;;;;45.63;22.13;;;18.50;62.30;;;;;;5059004;28;20293;-78
2022/03/25 10:59:28;;;;;;;42.92;20.90;;;18.40;62.60;;;;;;5053716;28;20213;-77
2022/03/25 11:01:59;;;;;;;41.63;21.67;;;18.50;63.50;;;;;;5052794;28;20169;-78
2022/03/25 11:04:26;;;;;;;46.72;21.88;;;18.80;63.40;;;;;;5053942;28;20170;-77
2022/03/25 11:06:52;;;;;;;48.95;23.50;;;19.10;61.30;;;;;;5049294;28;20407;-76
2022/03/25 11:09:19;;;;;;;40.60;20.05;;;18.90;61.30;;;;;;5051362;28;20201;-76
2022/03/25 11:11:47;;;;;;;47.33;21.85;;;18.80;61.80;;;;;;5050795;28;20174;-77
2022/03/25 11:14:14;;;;;;;45.30;20.23;;;18.80;62.00;;;;;;5053439;28;20280;-78
2022/03/25 11:16:44;;;;;;;43.70;21.52;;;18.60;62.30;;;;;;5053064;28;20201;-78
2022/03/25 11:19:12;;;;;;;49.85;21.60;;;18.70;63.50;;;;;;5052235;28;20191;-77
2022/03/25 11:21:46;;;;;;;42.17;21.42;;;19.20;62.50;;;;;;5051313;28;20173;-77
2022/03/25 11:24:31;;;;;;;42.37;20.70;;;18.90;60.90;;;;;;5050773;28;20594;-76
2022/03/25 11:26:59;;;;;;;41.77;20.17;;;19.20;62.20;;;;;;5050753;28;20450;-75
2022/03/25 11:29:27;;;;;;;38.10;19.03;;;19.00;60.90;;;;;;5050453;28;20200;-75
2022/03/25 11:32:03;;;;;;;41.78;18.75;;;19.40;60.60;;;;;;5050085;28;20483;-75
2022/03/25 11:34:29;;;;;;;41.85;19.70;;;19.40;62.70;;;;;;5050358;28;20226;-79
2022/03/25 11:37:34;;;;;;;41.50;18.48;;;19.30;62.00;;;;;;5049747;28;20205;-75
2022/03/25 11:40:15;;;;;;;43.50;19.98;;;19.00;60.50;;;;;;5049653;28;20200;-74
2022/03/25 11:42:52;;;;;;;41.90;20.13;;;18.60;62.60;;;;;;5050022;28;20165;-74
2022/03/25 11:45:21;;;;;;;39.47;18.70;;;18.50;62.20;;;;;;5049849;28;20173;-74
2022/03/25 11:48:11;;;;;;;36.97;16.57;;;19.00;61.90;;;;;;5049921;28;20664;-74
2022/03/25 11:50:44;;;;;;;47.77;19.87;;;19.20;62.80;;;;;;5031376;28;20246;-73
2022/03/25 11:53:13;;;;;;;35.92;18.33;;;20.10;61.30;;;;;;5049324;28;20193;-74
2022/03/25 11:55:59;;;;;;;41.25;18.70;;;19.80;59.60;;;;;;5050105;28;20173;-74
2022/03/25 11:58:25;;;;;;;37.30;17.03;;;18.90;62.10;;;;;;5049914;28;20580;-75
2022/03/25 12:00:56;;;;;;;41.78;19.50;;;19.00;60.00;;;;;;5049939;28;20179;-75
2022/03/25 12:03:39;;;;;;;35.60;15.47;;;18.30;61.70;;;;;;5050831;28;20157;-76
2022/03/25 12:06:05;;;;;;;40.20;15.47;;;18.00;60.80;;;;;;5049973;28;20200;-74
2022/03/25 12:08:32;;;;;;;42.73;16.93;;;18.30;62.30;;;;;;5049813;28;20294;-76
2022/03/25 12:11:00;;;;;;;30.63;14.20;;;18.60;63.10;;;;;;5049522;28;20201;-75
2022/03/25 12:13:50;;;;;;;39.77;16.43;;;18.80;60.30;;;;;;5049694;28;20259;-74
2022/03/25 12:16:44;;;;;;;36.27;15.50;;;18.70;59.70;;;;;;5049731;28;20260;-77
2022/03/25 12:19:28;;;;;;;39.37;13.53;;;18.80;59.60;;;;;;5049551;28;20190;-75
2022/03/25 12:22:01;;;;;;;31.67;13.90;;;18.70;59.20;;;;;;5049296;28;20173;-75
2022/03/25 12:24:30;;;;;;;32.90;13.87;;;18.80;61.60;;;;;;5049401;28;20204;-74
2022/03/25 12:27:00;;;;;;;28.63;13.90;;;19.20;59.60;;;;;;5048981;28;20646;-75
2022/03/25 12:29:30;;;;;;;36.97;14.13;;;19.10;59.50;;;;;;5049509;28;20289;-76
2022/03/25 12:31:56;;;;;;;30.33;12.93;;;19.40;60.70;;;;;;5049409;28;20177;-75
2022/03/25 12:34:40;;;;;;;27.83;13.17;;;19.20;58.50;;;;;;5048865;28;20238;-76
2022/03/25 12:37:10;;;;;;;27.90;12.77;;;19.10;58.60;;;;;;5049948;28;20215;-76
2022/03/25 12:39:36;;;;;;;30.73;13.17;;;18.60;58.40;;;;;;5049664;28;20665;-76